Terminal Aerodrome Forecast
Issued by NWS

Home | Current Version | Previous Version | Graphics & Text | Print | Product List | Glossary On
Versions: 1 2 3 4 5 6 7 8 9 10 11 12 13 14 15 16 17 18 19 20 21 22 23 24 25 26 27
499
FTUS43 KLOT 182320
TAFMDW
TAF
KMDW 182320Z 1900/1924 06008KT P6SM FEW080 SCT150 BKN250
     FM190600 04005KT P6SM VCSH BKN060 OVC100
      TEMPO 1907/1911 5SM -SHRA BR OVC030
     FM191100 06006KT 6SM BR VCSH SCT018 BKN030
     FM191500 08008KT P6SM FEW025 BKN035=

USA.gov is the U.S. government's official web portal to all federal, state and local government web resources and services.